createdAt,value
2023-02-28T00:00:44.297Z,102158.34
2023-02-28T00:05:57.847Z,102154.02
2023-02-28T00:11:06.590Z,102157.39
2023-02-28T00:16:14.395Z,102159.60
2023-02-28T00:21:21.782Z,102158.48
2023-02-28T00:26:27.593Z,102162.77
2023-02-28T00:31:33.887Z,102170.10
2023-02-28T00:36:41.924Z,102169.95
2023-02-28T00:41:48.049Z,102171.84
2023-02-28T00:46:55.132Z,102172.52
2023-02-28T00:52:05.738Z,102169.95
2023-02-28T00:57:12.166Z,102166.55
2023-02-28T01:02:19.116Z,102164.70
2023-02-28T01:07:25.080Z,102166.09
2023-02-28T01:12:31.192Z,102166.55
2023-02-28T01:17:38.633Z,102165.29
2023-02-28T01:22:44.845Z,102160.86
2023-02-28T01:27:50.918Z,102161.27
2023-02-28T01:32:56.928Z,102170.27
2023-02-28T01:38:21.016Z,102175.34
2023-02-28T01:43:30.297Z,102173.39
2023-02-28T01:48:41.336Z,102171.96
2023-02-28T01:53:52.051Z,102175.20
2023-02-28T01:58:59.644Z,102175.63
2023-02-28T02:04:06.909Z,102175.45
2023-02-28T02:09:13.537Z,102173.16
2023-02-28T02:14:45.987Z,102170.28
2023-02-28T02:20:40.318Z,102171.36
2023-02-28T02:25:50.734Z,102172.39
2023-02-28T02:31:31.285Z,102169.80
2023-02-28T02:36:43.709Z,102173.35
2023-02-28T02:41:53.474Z,102179.94
2023-02-28T02:47:06.025Z,102182.20
2023-02-28T02:52:16.892Z,102180.72
2023-02-28T02:57:31.051Z,102183.58
2023-02-28T03:02:39.515Z,102187.98
2023-02-28T03:07:45.774Z,102191.43
2023-02-28T03:13:00.527Z,102187.83
2023-02-28T03:18:12.557Z,102186.34
2023-02-28T03:23:22.898Z,102186.87
2023-02-28T03:28:33.065Z,102185.16
2023-02-28T03:33:43.434Z,102188.95
2023-02-28T03:38:55.306Z,102191.41
2023-02-28T03:44:06.029Z,102193.61
2023-02-28T03:49:18.505Z,102191.67
2023-02-28T03:54:28.886Z,102198.14
2023-02-28T03:59:39.062Z,102200.30
2023-02-28T04:04:46.404Z,102207.02
2023-02-28T04:09:53.143Z,102206.05
2023-02-28T04:14:59.843Z,102203.43
2023-02-28T04:20:10.650Z,102202.46
2023-02-28T04:25:17.469Z,102201.24
2023-02-28T04:30:23.772Z,102207.02
2023-02-28T04:35:30.012Z,102207.50
2023-02-28T04:40:36.350Z,102206.28
2023-02-28T04:45:42.436Z,102204.40
2023-02-28T04:50:48.865Z,102209.73
2023-02-28T04:55:54.785Z,102209.16
2023-02-28T05:01:13.716Z,102213.92
2023-02-28T05:06:21.544Z,102215.39
2023-02-28T05:11:30.778Z,102220.71
2023-02-28T05:16:37.267Z,102229.63
2023-02-28T05:21:50.738Z,102233.19
2023-02-28T05:26:58.929Z,102242.64
2023-02-28T05:32:07.218Z,102249.04
2023-02-28T05:37:16.686Z,102259.56
2023-02-28T05:42:22.872Z,102261.48
2023-02-28T05:47:29.022Z,102262.55
2023-02-28T05:52:35.237Z,102264.48
2023-02-28T05:57:41.073Z,102273.67
2023-02-28T06:02:46.727Z,102273.83
2023-02-28T06:07:53.254Z,102276.77
2023-02-28T06:13:03.658Z,102285.56
2023-02-28T06:18:09.449Z,102287.20
2023-02-28T06:23:15.739Z,102286.90
2023-02-28T06:28:21.539Z,102282.48
2023-02-28T06:33:27.597Z,102275.16
2023-02-28T06:38:34.236Z,102267.18
2023-02-28T06:43:42.906Z,102251.33
2023-02-28T06:48:49.063Z,102239.96
2023-02-28T06:53:54.894Z,102238.06
2023-02-28T06:59:01.577Z,102231.31
2023-02-28T07:04:10.446Z,102221.35
2023-02-28T07:09:16.832Z,102215.31
2023-02-28T07:14:23.142Z,102222.02
2023-02-28T07:19:29.272Z,102224.81
2023-02-28T07:24:35.284Z,102219.62
2023-02-28T07:29:40.903Z,102215.04
2023-02-28T07:34:47.040Z,102210.11
2023-02-28T07:39:52.924Z,102211.73
2023-02-28T07:45:00.114Z,102203.64
2023-02-28T07:50:07.193Z,102212.17
2023-02-28T07:55:14.700Z,102208.45
2023-02-28T08:00:21.933Z,102205.65
2023-02-28T08:05:27.683Z,102208.28
2023-02-28T08:10:33.238Z,102206.10
2023-02-28T08:15:39.018Z,102206.96
2023-02-28T08:20:44.724Z,102207.98
2023-02-28T08:25:57.450Z,102206.98
2023-02-28T08:31:07.986Z,102207.55
2023-02-28T08:36:14.191Z,102215.69
2023-02-28T08:41:20.404Z,102217.45
2023-02-28T08:46:26.903Z,102218.82
2023-02-28T08:51:33.077Z,102217.19
2023-02-28T08:56:39.816Z,102215.74
2023-02-28T09:01:46.059Z,102219.08
2023-02-28T09:06:52.223Z,102217.39
2023-02-28T09:11:59.892Z,102224.54
2023-02-28T09:22:17.604Z,102229.06
2023-02-28T09:27:23.550Z,102227.52
2023-02-28T09:32:29.367Z,102225.40
2023-02-28T09:37:35.617Z,102227.70
2023-02-28T09:42:41.833Z,102225.42
2023-02-28T09:47:49.651Z,102223.48
2023-02-28T09:52:56.815Z,102227.89
2023-02-28T09:58:03.326Z,102230.57
2023-02-28T10:03:26.385Z,102233.33
2023-02-28T10:08:43.764Z,102240.98
2023-02-28T10:13:56.905Z,102241.30
2023-02-28T10:19:09.728Z,102240.64
2023-02-28T10:24:24.546Z,102239.23
2023-02-28T10:29:33.950Z,102237.02
2023-02-28T10:34:39.795Z,102232.16
2023-02-28T10:39:47.421Z,102231.48
2023-02-28T10:45:10.862Z,102225.70
2023-02-28T10:50:34.010Z,102222.09
2023-02-28T10:55:40.769Z,102216.61
2023-02-28T11:00:47.471Z,102214.02
2023-02-28T11:05:53.088Z,102213.41
2023-02-28T11:11:04.952Z,102205.41
2023-02-28T11:16:13.691Z,102196.33
2023-02-28T11:21:24.495Z,102186.83
2023-02-28T11:26:41.922Z,102182.88
2023-02-28T11:32:01.772Z,102176.65
2023-02-28T11:37:12.546Z,102166.19
2023-02-28T11:42:41.837Z,102165.23
2023-02-28T11:48:04.621Z,102161.44
2023-02-28T11:53:32.669Z,102155.70
2023-02-28T11:58:54.521Z,102148.01
2023-02-28T12:04:13.736Z,102137.84
2023-02-28T12:09:41.594Z,102134.66
2023-02-28T12:15:20.665Z,102132.27
2023-02-28T12:20:35.242Z,102130.78
2023-02-28T12:25:51.473Z,102125.34
2023-02-28T12:31:03.070Z,102122.11
2023-02-28T12:36:13.372Z,102119.13
2023-02-28T12:41:27.925Z,102115.14
2023-02-28T12:46:38.047Z,102110.67
2023-02-28T12:51:46.986Z,102102.80
2023-02-28T12:57:01.192Z,102100.41
2023-02-28T13:02:54.425Z,102097.73
2023-02-28T13:08:23.760Z,102091.89
2023-02-28T13:13:31.795Z,102091.64
2023-02-28T13:18:40.869Z,102083.59
2023-02-28T13:24:05.665Z,102074.89
2023-02-28T13:29:34.651Z,102072.65
2023-02-28T13:34:42.302Z,102068.25
2023-02-28T13:39:52.754Z,102062.90
2023-02-28T13:45:23.745Z,102055.97
2023-02-28T13:50:38.668Z,102049.66
2023-02-28T13:55:54.176Z,102045.59
2023-02-28T14:01:27.274Z,102039.73
2023-02-28T14:21:52.371Z,102016.73
2023-02-28T14:27:12.770Z,102010.88
2023-02-28T14:32:27.972Z,102007.91
2023-02-28T14:37:39.723Z,102002.11
2023-02-28T14:42:56.518Z,102001.91
2023-02-28T14:48:09.888Z,101995.52
2023-02-28T14:53:21.923Z,101991.77
2023-02-28T14:58:30.752Z,101993.05
2023-02-28T15:03:39.153Z,101993.14
2023-02-28T15:08:45.734Z,101993.39
2023-02-28T15:13:54.297Z,101999.55
2023-02-28T15:19:03.116Z,101999.87
2023-02-28T15:24:14.258Z,102003.06
2023-02-28T15:29:24.645Z,101996.11
2023-02-28T15:34:44.891Z,101992.63
2023-02-28T15:39:51.628Z,101993.73
2023-02-28T15:44:58.407Z,101995.81
2023-02-28T15:50:08.664Z,101992.98
2023-02-28T15:55:21.542Z,101996.95
2023-02-28T16:00:30.125Z,102004.13
2023-02-28T16:05:36.660Z,102009.42
2023-02-28T16:10:43.001Z,102011.69
2023-02-28T16:15:52.362Z,102005.90
2023-02-28T16:20:58.547Z,102007.33
2023-02-28T16:26:07.735Z,102007.48
2023-02-28T16:31:18.190Z,102012.69
2023-02-28T16:36:26.332Z,102011.73
2023-02-28T16:41:32.728Z,102017.02
2023-02-28T16:46:39.043Z,102021.92
2023-02-28T16:51:45.005Z,102033.45
2023-02-28T16:56:52.689Z,102041.16
2023-02-28T17:01:59.886Z,102045.29
2023-02-28T17:07:06.221Z,102048.43
2023-02-28T17:12:12.550Z,102050.27
2023-02-28T17:17:22.270Z,102051.30
2023-02-28T17:22:29.360Z,102051.42
2023-02-28T17:27:35.464Z,102049.77
2023-02-28T17:32:42.112Z,102045.67
2023-02-28T17:37:48.276Z,102043.89
2023-02-28T17:42:57.813Z,102043.83
2023-02-28T17:48:04.544Z,102042.67
2023-02-28T17:53:10.919Z,102038.95
2023-02-28T17:58:17.285Z,102030.72
2023-02-28T18:03:27.096Z,102025.52
2023-02-28T18:08:37.639Z,102019.23
2023-02-28T18:13:43.607Z,102008.04
2023-02-28T18:18:50.461Z,102000.20
2023-02-28T18:23:58.074Z,101998.32
2023-02-28T18:29:05.636Z,101990.48
2023-02-28T18:34:11.662Z,101988.47
2023-02-28T18:39:17.787Z,101986.39
2023-02-28T18:44:24.492Z,101985.03
2023-02-28T18:49:31.734Z,101975.30
2023-02-28T18:54:37.824Z,101981.02
2023-02-28T18:59:43.921Z,101999.35
2023-02-28T19:04:50.616Z,102014.38
2023-02-28T19:09:56.807Z,102013.08
2023-02-28T19:15:02.829Z,102008.99
2023-02-28T19:20:11.365Z,102006.94
2023-02-28T19:25:18.886Z,102010.65
2023-02-28T19:30:26.133Z,102013.10
2023-02-28T19:35:32.154Z,102020.17
2023-02-28T19:40:39.170Z,102029.11
2023-02-28T19:45:45.789Z,102030.65
2023-02-28T19:50:52.356Z,102035.59
2023-02-28T19:56:00.392Z,102038.02
2023-02-28T20:01:12.280Z,102037.02
2023-02-28T20:06:19.020Z,102030.80
2023-02-28T20:11:25.806Z,102035.80
2023-02-28T20:16:32.088Z,102048.86
2023-02-28T20:21:38.331Z,102044.80
2023-02-28T20:26:44.709Z,102034.32
2023-02-28T20:31:50.547Z,102020.11
2023-02-28T20:36:59.178Z,102011.95
2023-02-28T20:42:05.510Z,102017.05
2023-02-28T20:47:11.853Z,102021.41
2023-02-28T20:52:17.850Z,102025.38
2023-02-28T20:57:23.995Z,102021.98
2023-02-28T21:02:30.230Z,102013.16
2023-02-28T21:07:36.481Z,102024.52
2023-02-28T21:12:42.833Z,102017.70
2023-02-28T21:17:48.937Z,102014.71
2023-02-28T21:22:55.057Z,102011.38
2023-02-28T21:28:01.020Z,102013.33
2023-02-28T21:33:06.942Z,102008.64
2023-02-28T21:38:13.230Z,102011.39
2023-02-28T21:43:19.158Z,102007.93
2023-02-28T21:48:25.538Z,102012.58
2023-02-28T21:53:32.312Z,102018.61
2023-02-28T21:58:38.311Z,102009.90
2023-02-28T22:03:45.108Z,102004.41
2023-02-28T22:08:54.299Z,102003.89
2023-02-28T22:14:00.322Z,102006.38
2023-02-28T22:19:07.983Z,101992.32
2023-02-28T22:24:14.978Z,101984.72
2023-02-28T22:29:21.791Z,101984.69
2023-02-28T22:34:27.889Z,101977.84
2023-02-28T22:39:33.613Z,101973.41
2023-02-28T22:44:41.090Z,101976.97
2023-02-28T22:49:47.240Z,101984.14
2023-02-28T22:54:53.861Z,101986.05
2023-02-28T22:59:59.797Z,101993.32
2023-02-28T23:05:06.131Z,102007.05
2023-02-28T23:10:16.256Z,102005.67
2023-02-28T23:15:23.358Z,102004.21
2023-02-28T23:20:29.891Z,101991.37
2023-02-28T23:25:39.122Z,101983.66
2023-02-28T23:30:45.224Z,101986.44
2023-02-28T23:35:51.393Z,101987.48
2023-02-28T23:40:57.785Z,101991.70
2023-02-28T23:46:04.994Z,101999.98
2023-02-28T23:51:14.780Z,101997.49
2023-02-28T23:56:23.078Z,101996.17
